Curtis, Texas
Current Conditions -  °F | °C
As of 10:55 PM on Saturday 25 Oct 2014 (Local Time) from KJAS Reporting Station
Haze Haze  
Wind Chill: 14°   Ceiling: Unl
Heat Index: 14°   Visibility: 2mi
Dew Point: 13°   Wind: 0mph
Humidity: 97%   Direction: NA
Pressure: 30.13"   Gusts: NA
Location:  30.9529°N, 94.0707°W
Report Text: KJAS 260355Z AUTO 00000KT 2SM BR CLR 14/13 A3013 RMK AO2 VIS 3/4V5 T01380134
Loading
Personal Weather Stations






























Interactive Weather Map
Tropical Storm Tracking
New forecast layout! Learn more

10-Day Weather Forecast

Advertisements
Track Severe Weather on mobile